Time,TemperatureF,DewpointF,PressureIn,WindDirection,WindDirectionDegrees,WindSpeedMPH,WindSpeedGustMPH,Humidity,HourlyPrecipIn,Conditions,Clouds,dailyrainin,SoftwareType,DateUTC
2013-07-26 00:00:00,65.0,58.0,30.02,NNE,26,0.0,15.0,78,0.00,,,-99.99,,2013-07-26 04:00:00,
2013-07-26 00:32:00,65.0,58.0,30.02,NNE,26,0.0,15.0,78,0.00,,,-99.99,,2013-07-26 04:32:00,
2013-07-26 00:43:00,65.0,58.0,30.02,NNE,26,0.0,15.0,78,0.00,,,-99.99,,2013-07-26 04:43:00,
2013-07-26 00:53:00,65.0,58.0,30.02,NNE,26,0.0,15.0,78,0.00,,,-99.99,,2013-07-26 04:53:00,
2013-07-26 01:00:00,66.0,58.0,30.01,NE,53,3.0,11.0,76,0.00,,,-99.99,,2013-07-26 05:00:00,
2013-07-26 01:43:00,66.0,58.0,30.01,NE,53,3.0,11.0,76,0.00,,,-99.99,,2013-07-26 05:43:00,
2013-07-26 01:52:00,66.0,58.0,30.01,NE,53,3.0,11.0,76,0.00,,,-99.99,,2013-07-26 05:52:00,
2013-07-26 02:00:00,66.0,58.0,30.01,ENE,64,4.0,8.0,74,0.00,,,-99.99,,2013-07-26 06:00:00,
2013-07-26 02:43:00,66.0,58.0,30.01,ENE,64,4.0,8.0,74,0.00,,,-99.99,,2013-07-26 06:43:00,
2013-07-26 02:52:00,66.0,58.0,30.01,ENE,64,4.0,8.0,74,0.00,,,-99.99,,2013-07-26 06:52:00,
2013-07-26 03:00:00,66.0,58.0,29.99,ENE,68,4.0,10.0,76,0.00,,,-99.99,,2013-07-26 07:00:00,
2013-07-26 03:32:00,66.0,58.0,29.99,ENE,68,4.0,10.0,76,0.00,,,-99.99,,2013-07-26 07:32:00,
2013-07-26 03:43:00,66.0,58.0,29.99,ENE,68,4.0,10.0,76,0.00,,,-99.99,,2013-07-26 07:43:00,
2013-07-26 03:53:00,66.0,58.0,29.99,ENE,68,4.0,10.0,76,0.00,,,-99.99,,2013-07-26 07:53:00,
2013-07-26 04:00:00,67.0,58.0,29.99,NNW,338,3.0,12.0,75,0.00,,,-99.99,,2013-07-26 08:00:00,
2013-07-26 04:32:00,67.0,58.0,29.99,NNW,338,3.0,12.0,75,0.00,,,-99.99,,2013-07-26 08:32:00,
2013-07-26 04:44:00,67.0,58.0,29.99,NNW,338,3.0,12.0,75,0.00,,,-99.99,,2013-07-26 08:44:00,
2013-07-26 04:52:00,67.0,58.0,29.99,NNW,338,3.0,12.0,75,0.00,,,-99.99,,2013-07-26 08:52:00,
2013-07-26 05:00:00,67.0,59.0,29.98,NNW,344,3.0,10.0,76,0.00,,,-99.99,,2013-07-26 09:00:00,
2013-07-26 05:33:00,67.0,59.0,29.98,NNW,344,3.0,10.0,76,0.00,,,-99.99,,2013-07-26 09:33:00,
2013-07-26 05:43:00,67.0,59.0,29.98,NNW,344,3.0,10.0,76,0.00,,,-99.99,,2013-07-26 09:43:00,
2013-07-26 05:52:00,67.0,59.0,29.98,NNW,344,3.0,10.0,76,0.00,,,-99.99,,2013-07-26 09:52:00,
2013-07-26 06:00:00,67.0,59.0,29.99,North,4,3.0,11.0,76,0.00,,,-99.99,,2013-07-26 10:00:00,
2013-07-26 06:33:00,67.0,59.0,29.99,North,4,3.0,11.0,76,0.00,,,-99.99,,2013-07-26 10:33:00,
2013-07-26 06:43:00,67.0,59.0,29.99,North,4,3.0,11.0,76,0.00,,,-99.99,,2013-07-26 10:43:00,
2013-07-26 06:53:00,67.0,59.0,29.99,North,4,3.0,11.0,76,0.00,,,-99.99,,2013-07-26 10:53:00,
2013-07-26 07:00:00,67.0,59.0,29.99,NNE,16,6.0,11.0,75,0.00,,,-99.99,,2013-07-26 11:00:00,
2013-07-26 07:32:00,67.0,59.0,29.99,NNE,16,6.0,11.0,75,0.00,,,-99.99,,2013-07-26 11:32:00,
2013-07-26 07:43:00,67.0,59.0,29.99,NNE,16,6.0,11.0,75,0.00,,,-99.99,,2013-07-26 11:43:00,
2013-07-26 07:52:00,67.0,59.0,29.99,NNE,16,6.0,11.0,75,0.00,,,-99.99,,2013-07-26 11:52:00,
2013-07-26 08:00:00,67.0,58.0,30.00,North,11,7.0,15.0,71,0.00,,,-99.99,,2013-07-26 12:00:00,
2013-07-26 08:33:00,67.0,58.0,30.00,North,11,7.0,15.0,71,0.00,,,-99.99,,2013-07-26 12:33:00,
2013-07-26 08:43:00,67.0,58.0,30.00,North,11,7.0,15.0,71,0.00,,,-99.99,,2013-07-26 12:43:00,
2013-07-26 08:53:00,67.0,58.0,30.00,North,11,7.0,15.0,71,0.00,,,-99.99,,2013-07-26 12:53:00,
2013-07-26 09:00:00,69.0,58.0,30.02,NNW,338,7.0,12.0,68,0.00,,,-99.99,,2013-07-26 13:00:00,
2013-07-26 09:43:00,69.0,58.0,30.02,NNW,338,7.0,12.0,68,0.00,,,-99.99,,2013-07-26 13:43:00,
2013-07-26 09:53:00,69.0,58.0,30.02,NNW,338,7.0,12.0,68,0.00,,,-99.99,,2013-07-26 13:53:00,
2013-07-26 10:00:00,72.0,59.0,30.02,NE,35,4.0,11.0,63,0.00,,,-99.99,,2013-07-26 14:00:00,
2013-07-26 10:43:00,72.0,59.0,30.02,NE,35,4.0,11.0,63,0.00,,,-99.99,,2013-07-26 14:43:00,
2013-07-26 10:53:00,72.0,59.0,30.02,NE,35,4.0,11.0,63,0.00,,,-99.99,,2013-07-26 14:53:00,
2013-07-26 11:00:00,72.0,58.0,30.02,NE,56,4.0,17.0,61,0.00,,,-99.99,,2013-07-26 15:00:00,
2013-07-26 11:33:00,72.0,58.0,30.02,NE,56,4.0,17.0,61,0.00,,,-99.99,,2013-07-26 15:33:00,
2013-07-26 11:43:00,72.0,58.0,30.02,NE,56,4.0,17.0,61,0.00,,,-99.99,,2013-07-26 15:43:00,
2013-07-26 11:53:00,72.0,58.0,30.02,NE,56,4.0,17.0,61,0.00,,,-99.99,,2013-07-26 15:53:00,
2013-07-26 12:00:00,76.0,58.0,30.02,NNE,18,4.0,11.0,55,0.00,,,-99.99,,2013-07-26 16:00:00,
2013-07-26 12:43:00,76.0,58.0,30.02,NNE,18,4.0,11.0,55,0.00,,,-99.99,,2013-07-26 16:43:00,
2013-07-26 12:54:00,76.0,58.0,30.02,NNE,18,4.0,11.0,55,0.00,,,-99.99,,2013-07-26 16:54:00,
2013-07-26 13:00:00,77.0,61.0,30.01,NNE,23,7.0,10.0,57,0.00,,,-99.99,,2013-07-26 17:00:00,
2013-07-26 13:33:00,77.0,61.0,30.01,NNE,23,7.0,10.0,57,0.00,,,-99.99,,2013-07-26 17:33:00,
2013-07-26 13:43:00,77.0,61.0,30.01,NNE,23,7.0,10.0,57,0.00,,,-99.99,,2013-07-26 17:43:00,
2013-07-26 13:53:00,77.0,61.0,30.01,NNE,23,7.0,10.0,57,0.00,,,-99.99,,2013-07-26 17:53:00,
2013-07-26 14:00:00,79.0,60.0,30.01,ESE,102,0.0,10.0,51,0.00,,,-99.99,,2013-07-26 18:00:00,
2013-07-26 14:33:00,79.0,60.0,30.01,ESE,102,0.0,10.0,51,0.00,,,-99.99,,2013-07-26 18:33:00,
2013-07-26 14:44:00,79.0,60.0,30.01,ESE,102,0.0,10.0,51,0.00,,,-99.99,,2013-07-26 18:44:00,
2013-07-26 14:53:00,79.0,60.0,30.01,ESE,102,0.0,10.0,51,0.00,,,-99.99,,2013-07-26 18:53:00,
2013-07-26 15:00:00,79.0,59.0,30.01,North,351,4.0,9.0,50,0.00,,,-99.99,,2013-07-26 19:00:00,
2013-07-26 15:32:00,79.0,59.0,30.01,North,351,4.0,9.0,50,0.00,,,-99.99,,2013-07-26 19:32:00,
2013-07-26 15:43:00,79.0,59.0,30.01,North,351,4.0,9.0,50,0.00,,,-99.99,,2013-07-26 19:43:00,
2013-07-26 15:52:00,79.0,59.0,30.01,North,351,4.0,9.0,50,0.00,,,-99.99,,2013-07-26 19:52:00,
2013-07-26 16:00:00,82.0,58.0,29.99,NW,304,1.0,7.0,45,0.00,,,-99.99,,2013-07-26 20:00:00,
2013-07-26 16:32:00,82.0,58.0,29.99,NW,304,1.0,7.0,45,0.00,,,-99.99,,2013-07-26 20:32:00,
2013-07-26 16:43:00,82.0,58.0,29.99,NW,304,1.0,7.0,45,0.00,,,-99.99,,2013-07-26 20:43:00,
2013-07-26 16:53:00,82.0,58.0,29.99,NW,304,1.0,7.0,45,0.00,,,-99.99,,2013-07-26 20:53:00,
2013-07-26 17:00:00,81.0,57.0,29.99,NNW,347,0.0,6.0,43,0.00,,,-99.99,,2013-07-26 21:00:00,
2013-07-26 17:32:00,81.0,57.0,29.99,NNW,347,0.0,6.0,43,0.00,,,-99.99,,2013-07-26 21:32:00,
2013-07-26 17:43:00,81.0,57.0,29.99,NNW,347,0.0,6.0,43,0.00,,,-99.99,,2013-07-26 21:43:00,
2013-07-26 17:53:00,81.0,57.0,29.99,NNW,347,0.0,6.0,43,0.00,,,-99.99,,2013-07-26 21:53:00,
2013-07-26 18:00:00,83.0,59.0,29.98,WNW,287,0.0,6.0,43,0.00,,,-99.99,,2013-07-26 22:00:00,
2013-07-26 18:33:00,83.0,59.0,29.98,WNW,287,0.0,6.0,43,0.00,,,-99.99,,2013-07-26 22:33:00,
2013-07-26 18:43:00,83.0,59.0,29.98,WNW,287,0.0,6.0,43,0.00,,,-99.99,,2013-07-26 22:43:00,
2013-07-26 18:53:00,83.0,59.0,29.98,WNW,287,0.0,6.0,43,0.00,,,-99.99,,2013-07-26 22:53:00,
2013-07-26 19:00:00,83.0,60.0,29.99,SSW,206,0.0,8.0,47,0.00,,,-99.99,,2013-07-26 23:00:00,
2013-07-26 19:32:00,83.0,60.0,29.99,SSW,206,0.0,8.0,47,0.00,,,-99.99,,2013-07-26 23:32:00,
2013-07-26 19:43:00,83.0,60.0,29.99,SSW,206,0.0,8.0,47,0.00,,,-99.99,,2013-07-26 23:43:00,
2013-07-26 19:53:00,83.0,60.0,29.99,SSW,206,0.0,8.0,47,0.00,,,-99.99,,2013-07-26 23:53:00,
2013-07-26 20:00:00,79.0,57.0,29.99,WNW,298,0.0,9.0,47,0.00,,,-99.99,,2013-07-27 00:00:00,
2013-07-26 20:32:00,79.0,57.0,29.99,WNW,298,0.0,9.0,47,0.00,,,-99.99,,2013-07-27 00:32:00,
2013-07-26 20:43:00,79.0,57.0,29.99,WNW,298,0.0,9.0,47,0.00,,,-99.99,,2013-07-27 00:43:00,
2013-07-26 20:53:00,79.0,57.0,29.99,WNW,298,0.0,9.0,47,0.00,,,-99.99,,2013-07-27 00:53:00,
2013-07-26 21:00:00,74.0,58.0,30.00,South,190,0.0,6.0,57,0.00,,,-99.99,,2013-07-27 01:00:00,
2013-07-26 21:32:00,74.0,58.0,30.00,South,190,0.0,6.0,57,0.00,,,-99.99,,2013-07-27 01:32:00,
2013-07-26 21:44:00,74.0,58.0,30.00,South,190,0.0,6.0,57,0.00,,,-99.99,,2013-07-27 01:44:00,
2013-07-26 21:53:00,74.0,58.0,30.00,South,190,0.0,6.0,57,0.00,,,-99.99,,2013-07-27 01:53:00,
2013-07-26 22:00:00,71.0,58.0,30.01,SSE,167,0.0,0.0,64,0.00,,,-99.99,,2013-07-27 02:00:00,
2013-07-26 22:32:00,71.0,58.0,30.01,SSE,167,0.0,0.0,64,0.00,,,-99.99,,2013-07-27 02:32:00,
2013-07-26 22:43:00,71.0,58.0,30.01,SSE,167,0.0,0.0,64,0.00,,,-99.99,,2013-07-27 02:43:00,
2013-07-26 22:53:00,71.0,58.0,30.01,SSE,167,0.0,0.0,64,0.00,,,-99.99,,2013-07-27 02:53:00,
2013-07-26 23:00:00,69.0,59.0,30.02,SE,139,0.0,0.0,69,0.00,,,-99.99,,2013-07-27 03:00:00,
2013-07-26 23:44:00,69.0,59.0,30.02,SE,139,0.0,0.0,69,0.00,,,-99.99,,2013-07-27 03:44:00,
2013-07-26 23:52:00,69.0,59.0,30.02,SE,139,0.0,0.0,69,0.00,,,-99.99,,2013-07-27 03:52:00,